Sturgis, Canada
Current Conditions -  °F | °C
As of 7:00 AM on Monday 24 Nov 2014 (Local Time) from CYQV Reporting Station
Clear Clear  
Wind Chill: -21°   Ceiling: Unl
Heat Index: -6°   Visibility: 9mi
Dew Point: -9°   Wind: 8mph
Humidity: 84%   Direction: 260°W
Pressure: 29.89"   Gusts: NA
Location:  51.85°N, 102.53°W
Report Text: CYQV 241300Z AUTO 26007KT 9SM CLR M21/M23 A2989 RMK SLP174
Loading
Personal Weather Stations






























Interactive Weather Map New forecast layout! Learn more

10-Day Weather Forecast

Advertisements
Track Severe Weather on mobile